sensor_id;sensor_type;location;lat;lon;timestamp;temperature;humidity
1415;DHT22;702;49.466;11.086;2024-02-26T00:01:04;4.00;77.80
1415;DHT22;702;49.466;11.086;2024-02-26T00:03:32;3.90;78.00
1415;DHT22;702;49.466;11.086;2024-02-26T00:06:01;3.90;78.20
1415;DHT22;702;49.466;11.086;2024-02-26T00:08:29;3.80;78.60
1415;DHT22;702;49.466;11.086;2024-02-26T00:10:57;3.80;79.50
1415;DHT22;702;49.466;11.086;2024-02-26T00:13:24;3.80;79.60
1415;DHT22;702;49.466;11.086;2024-02-26T00:15:52;3.90;79.90
1415;DHT22;702;49.466;11.086;2024-02-26T00:18:19;3.90;80.00
1415;DHT22;702;49.466;11.086;2024-02-26T00:20:46;4.00;80.20
1415;DHT22;702;49.466;11.086;2024-02-26T00:23:15;4.00;80.10
1415;DHT22;702;49.466;11.086;2024-02-26T00:25:42;4.00;80.40
1415;DHT22;702;49.466;11.086;2024-02-26T00:28:13;4.00;80.40
1415;DHT22;702;49.466;11.086;2024-02-26T00:30:41;4.00;80.50
1415;DHT22;702;49.466;11.086;2024-02-26T00:33:09;4.00;80.90
1415;DHT22;702;49.466;11.086;2024-02-26T00:35:36;4.00;81.10
1415;DHT22;702;49.466;11.086;2024-02-26T00:38:04;4.00;81.70
1415;DHT22;702;49.466;11.086;2024-02-26T00:40:31;4.00;81.70
1415;DHT22;702;49.466;11.086;2024-02-26T00:42:58;4.00;82.00
1415;DHT22;702;49.466;11.086;2024-02-26T00:45:27;4.00;82.50
1415;DHT22;702;49.466;11.086;2024-02-26T00:47:54;4.00;82.70
1415;DHT22;702;49.466;11.086;2024-02-26T00:50:22;4.00;83.30
1415;DHT22;702;49.466;11.086;2024-02-26T00:52:49;4.00;83.50
1415;DHT22;702;49.466;11.086;2024-02-26T00:55:16;4.00;84.00
1415;DHT22;702;49.466;11.086;2024-02-26T00:57:44;4.00;84.50
1415;DHT22;702;49.466;11.086;2024-02-26T01:00:12;4.00;84.50
1415;DHT22;702;49.466;11.086;2024-02-26T01:02:41;4.00;84.40
1415;DHT22;702;49.466;11.086;2024-02-26T01:05:09;4.00;84.90
1415;DHT22;702;49.466;11.086;2024-02-26T01:07:36;3.90;84.80
1415;DHT22;702;49.466;11.086;2024-02-26T01:10:04;3.80;85.10
1415;DHT22;702;49.466;11.086;2024-02-26T01:12:31;3.60;85.50
1415;DHT22;702;49.466;11.086;2024-02-26T01:14:59;3.50;87.00
1415;DHT22;702;49.466;11.086;2024-02-26T01:17:27;3.60;87.80
1415;DHT22;702;49.466;11.086;2024-02-26T01:19:55;3.40;88.00
1415;DHT22;702;49.466;11.086;2024-02-26T01:22:23;3.40;89.00
1415;DHT22;702;49.466;11.086;2024-02-26T01:24:50;3.40;88.80
1415;DHT22;702;49.466;11.086;2024-02-26T01:27:17;3.30;88.60
1415;DHT22;702;49.466;11.086;2024-02-26T01:29:45;3.20;89.50
1415;DHT22;702;49.466;11.086;2024-02-26T01:32:13;3.00;90.30
1415;DHT22;702;49.466;11.086;2024-02-26T01:34:40;3.00;90.80
1415;DHT22;702;49.466;11.086;2024-02-26T01:37:08;3.10;91.30
1415;DHT22;702;49.466;11.086;2024-02-26T01:39:36;3.10;91.80
1415;DHT22;702;49.466;11.086;2024-02-26T01:42:03;3.20;92.50
1415;DHT22;702;49.466;11.086;2024-02-26T01:44:31;3.20;92.70
1415;DHT22;702;49.466;11.086;2024-02-26T01:46:58;3.30;93.00
1415;DHT22;702;49.466;11.086;2024-02-26T01:49:27;3.40;92.40
1415;DHT22;702;49.466;11.086;2024-02-26T01:51:55;3.50;91.50
1415;DHT22;702;49.466;11.086;2024-02-26T01:54:25;3.50;90.70
1415;DHT22;702;49.466;11.086;2024-02-26T01:56:52;3.60;90.20
1415;DHT22;702;49.466;11.086;2024-02-26T01:59:20;3.70;89.60
1415;DHT22;702;49.466;11.086;2024-02-26T02:01:52;3.70;89.10
1415;DHT22;702;49.466;11.086;2024-02-26T02:04:23;3.60;88.80
1415;DHT22;702;49.466;11.086;2024-02-26T02:06:52;3.50;89.20
1415;DHT22;702;49.466;11.086;2024-02-26T02:09:19;3.60;89.60
1415;DHT22;702;49.466;11.086;2024-02-26T02:11:50;3.50;89.40
1415;DHT22;702;49.466;11.086;2024-02-26T02:14:17;3.50;90.10
1415;DHT22;702;49.466;11.086;2024-02-26T02:16:45;3.50;90.10
1415;DHT22;702;49.466;11.086;2024-02-26T02:19:13;3.60;89.60
1415;DHT22;702;49.466;11.086;2024-02-26T02:21:42;3.60;88.90
1415;DHT22;702;49.466;11.086;2024-02-26T02:24:09;3.60;88.70
1415;DHT22;702;49.466;11.086;2024-02-26T02:26:36;3.60;88.80
1415;DHT22;702;49.466;11.086;2024-02-26T02:29:04;3.60;88.40
1415;DHT22;702;49.466;11.086;2024-02-26T02:31:32;3.60;88.10
1415;DHT22;702;49.466;11.086;2024-02-26T02:34:00;3.60;88.40
1415;DHT22;702;49.466;11.086;2024-02-26T02:36:28;3.60;88.10
1415;DHT22;702;49.466;11.086;2024-02-26T02:38:57;3.60;88.20
1415;DHT22;702;49.466;11.086;2024-02-26T02:41:27;3.60;88.30
1415;DHT22;702;49.466;11.086;2024-02-26T02:43:55;3.50;88.50
1415;DHT22;702;49.466;11.086;2024-02-26T02:46:23;3.50;89.00
1415;DHT22;702;49.466;11.086;2024-02-26T02:48:50;3.40;89.80
1415;DHT22;702;49.466;11.086;2024-02-26T02:51:17;3.30;90.10
1415;DHT22;702;49.466;11.086;2024-02-26T02:53:45;3.40;90.50
1415;DHT22;702;49.466;11.086;2024-02-26T02:56:13;3.50;90.50
1415;DHT22;702;49.466;11.086;2024-02-26T02:58:40;3.60;89.80
1415;DHT22;702;49.466;11.086;2024-02-26T03:01:08;3.70;88.60
1415;DHT22;702;49.466;11.086;2024-02-26T03:03:35;3.80;87.70
1415;DHT22;702;49.466;11.086;2024-02-26T03:06:02;3.80;87.40
1415;DHT22;702;49.466;11.086;2024-02-26T03:08:30;3.80;87.50
1415;DHT22;702;49.466;11.086;2024-02-26T03:10:58;3.80;87.30
1415;DHT22;702;49.466;11.086;2024-02-26T03:13:27;3.80;87.10
1415;DHT22;702;49.466;11.086;2024-02-26T03:15:54;3.80;87.00
1415;DHT22;702;49.466;11.086;2024-02-26T03:18:22;3.90;87.10
1415;DHT22;702;49.466;11.086;2024-02-26T03:20:50;3.90;87.00
1415;DHT22;702;49.466;11.086;2024-02-26T03:23:18;3.90;87.00
1415;DHT22;702;49.466;11.086;2024-02-26T03:25:47;4.00;86.90
1415;DHT22;702;49.466;11.086;2024-02-26T03:28:16;4.00;86.60
1415;DHT22;702;49.466;11.086;2024-02-26T03:30:45;4.00;86.20
1415;DHT22;702;49.466;11.086;2024-02-26T03:33:15;4.10;86.20
1415;DHT22;702;49.466;11.086;2024-02-26T03:35:42;4.10;86.60
1415;DHT22;702;49.466;11.086;2024-02-26T03:38:09;4.10;86.30
1415;DHT22;702;49.466;11.086;2024-02-26T03:40:37;4.10;85.70
1415;DHT22;702;49.466;11.086;2024-02-26T03:43:04;4.10;85.80
1415;DHT22;702;49.466;11.086;2024-02-26T03:45:33;4.10;85.60
1415;DHT22;702;49.466;11.086;2024-02-26T03:48:01;4.10;85.50
1415;DHT22;702;49.466;11.086;2024-02-26T03:50:29;4.00;85.40
1415;DHT22;702;49.466;11.086;2024-02-26T03:52:56;4.00;85.40
1415;DHT22;702;49.466;11.086;2024-02-26T03:55:25;4.00;85.20
1415;DHT22;702;49.466;11.086;2024-02-26T03:57:57;3.90;85.30
1415;DHT22;702;49.466;11.086;2024-02-26T04:00:25;3.80;85.40
1415;DHT22;702;49.466;11.086;2024-02-26T04:02:54;3.80;85.60
1415;DHT22;702;49.466;11.086;2024-02-26T04:05:23;3.80;85.80
1415;DHT22;702;49.466;11.086;2024-02-26T04:07:50;3.80;85.80
1415;DHT22;702;49.466;11.086;2024-02-26T04:10:18;3.80;85.70
1415;DHT22;702;49.466;11.086;2024-02-26T04:12:45;3.80;85.60
1415;DHT22;702;49.466;11.086;2024-02-26T04:15:12;3.80;85.80
1415;DHT22;702;49.466;11.086;2024-02-26T04:17:40;3.80;85.50
1415;DHT22;702;49.466;11.086;2024-02-26T04:20:12;3.80;85.50
1415;DHT22;702;49.466;11.086;2024-02-26T04:22:42;3.70;85.90
1415;DHT22;702;49.466;11.086;2024-02-26T04:25:10;3.80;85.90
1415;DHT22;702;49.466;11.086;2024-02-26T04:27:37;3.80;85.90
1415;DHT22;702;49.466;11.086;2024-02-26T04:30:05;3.80;85.90
1415;DHT22;702;49.466;11.086;2024-02-26T04:32:34;3.90;85.50
1415;DHT22;702;49.466;11.086;2024-02-26T04:35:01;4.00;85.30
1415;DHT22;702;49.466;11.086;2024-02-26T04:37:28;4.00;85.10
1415;DHT22;702;49.466;11.086;2024-02-26T04:39:59;4.00;84.60
1415;DHT22;702;49.466;11.086;2024-02-26T04:42:30;4.00;84.50
1415;DHT22;702;49.466;11.086;2024-02-26T04:44:57;4.00;84.30
1415;DHT22;702;49.466;11.086;2024-02-26T04:47:24;4.00;84.30
1415;DHT22;702;49.466;11.086;2024-02-26T04:49:51;4.00;84.10
1415;DHT22;702;49.466;11.086;2024-02-26T04:52:19;4.10;84.00
1415;DHT22;702;49.466;11.086;2024-02-26T04:54:47;4.10;83.80
1415;DHT22;702;49.466;11.086;2024-02-26T04:57:15;4.10;83.70
1415;DHT22;702;49.466;11.086;2024-02-26T04:59:44;4.10;83.30
1415;DHT22;702;49.466;11.086;2024-02-26T05:02:11;4.10;83.10
1415;DHT22;702;49.466;11.086;2024-02-26T05:04:39;4.10;83.20
1415;DHT22;702;49.466;11.086;2024-02-26T05:07:07;4.10;83.10
1415;DHT22;702;49.466;11.086;2024-02-26T05:09:34;4.10;82.80
1415;DHT22;702;49.466;11.086;2024-02-26T05:12:03;4.10;82.80
1415;DHT22;702;49.466;11.086;2024-02-26T05:14:32;4.10;82.60
1415;DHT22;702;49.466;11.086;2024-02-26T05:17:00;4.00;82.50
1415;DHT22;702;49.466;11.086;2024-02-26T05:19:28;4.00;82.40
1415;DHT22;702;49.466;11.086;2024-02-26T05:21:55;4.00;82.30
1415;DHT22;702;49.466;11.086;2024-02-26T05:24:22;4.00;82.30
1415;DHT22;702;49.466;11.086;2024-02-26T05:26:49;4.00;82.10
1415;DHT22;702;49.466;11.086;2024-02-26T05:29:17;4.00;82.00
1415;DHT22;702;49.466;11.086;2024-02-26T05:31:45;4.00;82.10
1415;DHT22;702;49.466;11.086;2024-02-26T05:34:13;4.00;82.10
1415;DHT22;702;49.466;11.086;2024-02-26T05:36:40;4.00;82.20
1415;DHT22;702;49.466;11.086;2024-02-26T05:39:07;4.10;82.00
1415;DHT22;702;49.466;11.086;2024-02-26T05:41:37;4.10;81.70
1415;DHT22;702;49.466;11.086;2024-02-26T05:44:04;4.10;81.70
1415;DHT22;702;49.466;11.086;2024-02-26T05:46:31;4.20;81.90
1415;DHT22;702;49.466;11.086;2024-02-26T05:49:00;4.20;81.50
1415;DHT22;702;49.466;11.086;2024-02-26T05:51:27;4.20;81.40
1415;DHT22;702;49.466;11.086;2024-02-26T05:53:54;4.30;81.30
1415;DHT22;702;49.466;11.086;2024-02-26T05:56:21;4.30;81.40
1415;DHT22;702;49.466;11.086;2024-02-26T05:58:48;4.30;81.50
1415;DHT22;702;49.466;11.086;2024-02-26T06:01:16;4.30;80.90
1415;DHT22;702;49.466;11.086;2024-02-26T06:03:44;4.30;81.00
1415;DHT22;702;49.466;11.086;2024-02-26T06:06:13;4.30;80.80
1415;DHT22;702;49.466;11.086;2024-02-26T06:08:40;4.30;81.00
1415;DHT22;702;49.466;11.086;2024-02-26T06:11:07;4.20;80.80
1415;DHT22;702;49.466;11.086;2024-02-26T06:13:36;4.20;81.10
1415;DHT22;702;49.466;11.086;2024-02-26T06:16:04;4.30;81.10
1415;DHT22;702;49.466;11.086;2024-02-26T06:18:32;4.30;81.00
1415;DHT22;702;49.466;11.086;2024-02-26T06:21:03;4.30;80.80
1415;DHT22;702;49.466;11.086;2024-02-26T06:23:31;4.20;80.80
1415;DHT22;702;49.466;11.086;2024-02-26T06:25:59;4.30;80.90
1415;DHT22;702;49.466;11.086;2024-02-26T06:28:29;4.30;80.60
1415;DHT22;702;49.466;11.086;2024-02-26T06:30:59;4.40;80.40
1415;DHT22;702;49.466;11.086;2024-02-26T06:33:27;4.50;80.30
1415;DHT22;702;49.466;11.086;2024-02-26T06:35:54;4.50;80.20
1415;DHT22;702;49.466;11.086;2024-02-26T06:38:22;4.50;80.30
1415;DHT22;702;49.466;11.086;2024-02-26T06:40:52;4.50;80.00
1415;DHT22;702;49.466;11.086;2024-02-26T06:43:20;4.50;80.20
1415;DHT22;702;49.466;11.086;2024-02-26T06:45:48;4.60;80.80
1415;DHT22;702;49.466;11.086;2024-02-26T06:48:15;4.70;80.70
1415;DHT22;702;49.466;11.086;2024-02-26T06:50:43;4.80;80.80
1415;DHT22;702;49.466;11.086;2024-02-26T06:53:10;4.90;80.40
1415;DHT22;702;49.466;11.086;2024-02-26T06:55:37;4.90;79.90
1415;DHT22;702;49.466;11.086;2024-02-26T06:58:07;4.90;79.60
1415;DHT22;702;49.466;11.086;2024-02-26T07:00:35;5.00;80.20
1415;DHT22;702;49.466;11.086;2024-02-26T07:03:02;5.00;79.10
1415;DHT22;702;49.466;11.086;2024-02-26T07:05:30;4.90;79.30
1415;DHT22;702;49.466;11.086;2024-02-26T07:07:57;5.10;79.80
1415;DHT22;702;49.466;11.086;2024-02-26T07:10:25;5.20;78.80
1415;DHT22;702;49.466;11.086;2024-02-26T07:12:52;5.20;78.90
1415;DHT22;702;49.466;11.086;2024-02-26T07:15:20;5.10;78.60
1415;DHT22;702;49.466;11.086;2024-02-26T07:17:48;5.10;78.70
1415;DHT22;702;49.466;11.086;2024-02-26T07:20:15;5.10;78.60
1415;DHT22;702;49.466;11.086;2024-02-26T07:22:43;5.10;78.40
1415;DHT22;702;49.466;11.086;2024-02-26T07:25:11;5.10;78.20
1415;DHT22;702;49.466;11.086;2024-02-26T07:27:39;5.00;78.50
1415;DHT22;702;49.466;11.086;2024-02-26T07:30:11;5.10;78.20
1415;DHT22;702;49.466;11.086;2024-02-26T07:32:40;5.20;78.60
1415;DHT22;702;49.466;11.086;2024-02-26T07:35:08;5.30;78.60
1415;DHT22;702;49.466;11.086;2024-02-26T07:37:35;5.50;78.80
1415;DHT22;702;49.466;11.086;2024-02-26T07:40:04;5.80;78.00
1415;DHT22;702;49.466;11.086;2024-02-26T07:42:34;5.80;77.30
1415;DHT22;702;49.466;11.086;2024-02-26T07:45:02;5.80;77.20
1415;DHT22;702;49.466;11.086;2024-02-26T07:47:31;5.90;77.40
1415;DHT22;702;49.466;11.086;2024-02-26T07:50:01;6.00;76.90
1415;DHT22;702;49.466;11.086;2024-02-26T07:52:30;6.10;76.60
1415;DHT22;702;49.466;11.086;2024-02-26T07:54:59;6.20;76.30
1415;DHT22;702;49.466;11.086;2024-02-26T07:57:26;6.20;76.20
1415;DHT22;702;49.466;11.086;2024-02-26T07:59:53;6.50;76.00
1415;DHT22;702;49.466;11.086;2024-02-26T08:02:21;6.50;75.50
1415;DHT22;702;49.466;11.086;2024-02-26T08:04:48;6.50;75.30
1415;DHT22;702;49.466;11.086;2024-02-26T08:07:17;6.60;75.30
1415;DHT22;702;49.466;11.086;2024-02-26T08:09:45;6.60;75.00
1415;DHT22;702;49.466;11.086;2024-02-26T08:12:13;6.50;74.50
1415;DHT22;702;49.466;11.086;2024-02-26T08:14:40;6.40;74.70
1415;DHT22;702;49.466;11.086;2024-02-26T08:17:08;6.50;74.50
1415;DHT22;702;49.466;11.086;2024-02-26T08:19:35;6.60;74.40
1415;DHT22;702;49.466;11.086;2024-02-26T08:22:03;6.70;74.20
1415;DHT22;702;49.466;11.086;2024-02-26T08:24:32;6.90;74.10
1415;DHT22;702;49.466;11.086;2024-02-26T08:26:59;6.90;73.60
1415;DHT22;702;49.466;11.086;2024-02-26T08:29:26;7.00;73.70
1415;DHT22;702;49.466;11.086;2024-02-26T08:31:54;7.00;73.50
1415;DHT22;702;49.466;11.086;2024-02-26T08:34:21;6.80;73.60
1415;DHT22;702;49.466;11.086;2024-02-26T08:36:48;6.80;73.60
1415;DHT22;702;49.466;11.086;2024-02-26T08:39:16;6.90;73.90
1415;DHT22;702;49.466;11.086;2024-02-26T08:41:45;6.80;74.00
1415;DHT22;702;49.466;11.086;2024-02-26T08:44:12;6.80;73.90
1415;DHT22;702;49.466;11.086;2024-02-26T08:46:40;6.70;74.00
1415;DHT22;702;49.466;11.086;2024-02-26T08:49:07;6.80;74.20
1415;DHT22;702;49.466;11.086;2024-02-26T08:51:34;6.80;74.10
1415;DHT22;702;49.466;11.086;2024-02-26T08:54:02;6.90;73.90
1415;DHT22;702;49.466;11.086;2024-02-26T08:56:29;6.90;73.70
1415;DHT22;702;49.466;11.086;2024-02-26T08:58:58;7.00;73.80
1415;DHT22;702;49.466;11.086;2024-02-26T09:01:29;7.20;73.70
1415;DHT22;702;49.466;11.086;2024-02-26T09:03:56;7.40;73.30
1415;DHT22;702;49.466;11.086;2024-02-26T09:06:23;7.60;72.70
1415;DHT22;702;49.466;11.086;2024-02-26T09:08:50;7.80;72.40
1415;DHT22;702;49.466;11.086;2024-02-26T09:11:18;7.90;72.30
1415;DHT22;702;49.466;11.086;2024-02-26T09:13:45;8.30;71.80
1415;DHT22;702;49.466;11.086;2024-02-26T09:16:13;8.40;70.80
1415;DHT22;702;49.466;11.086;2024-02-26T09:18:41;8.50;70.40
1415;DHT22;702;49.466;11.086;2024-02-26T09:21:08;8.40;69.90
1415;DHT22;702;49.466;11.086;2024-02-26T09:23:35;8.40;70.00
1415;DHT22;702;49.466;11.086;2024-02-26T09:26:04;8.70;69.80
1415;DHT22;702;49.466;11.086;2024-02-26T09:28:32;8.90;69.20
1415;DHT22;702;49.466;11.086;2024-02-26T09:31:04;9.10;68.60
1415;DHT22;702;49.466;11.086;2024-02-26T09:33:33;9.00;67.50
1415;DHT22;702;49.466;11.086;2024-02-26T09:36:01;9.20;68.00
1415;DHT22;702;49.466;11.086;2024-02-26T09:38:28;9.40;66.80
1415;DHT22;702;49.466;11.086;2024-02-26T09:40:56;9.40;66.50
1415;DHT22;702;49.466;11.086;2024-02-26T09:43:28;9.40;66.50
1415;DHT22;702;49.466;11.086;2024-02-26T09:46:01;9.80;66.20
1415;DHT22;702;49.466;11.086;2024-02-26T09:48:29;10.00;64.70
1415;DHT22;702;49.466;11.086;2024-02-26T09:50:58;10.10;64.10
1415;DHT22;702;49.466;11.086;2024-02-26T09:53:26;9.90;64.40
1415;DHT22;702;49.466;11.086;2024-02-26T09:55:54;9.70;64.80
1415;DHT22;702;49.466;11.086;2024-02-26T09:58:22;9.60;65.00
1415;DHT22;702;49.466;11.086;2024-02-26T10:00:53;9.50;64.70
1415;DHT22;702;49.466;11.086;2024-02-26T10:03:25;9.60;65.10
1415;DHT22;702;49.466;11.086;2024-02-26T10:05:55;9.90;64.20
1415;DHT22;702;49.466;11.086;2024-02-26T10:08:26;10.00;62.70
1415;DHT22;702;49.466;11.086;2024-02-26T10:10:54;10.00;62.40
1415;DHT22;702;49.466;11.086;2024-02-26T10:13:22;9.90;63.30
1415;DHT22;702;49.466;11.086;2024-02-26T10:15:49;9.80;63.70
1415;DHT22;702;49.466;11.086;2024-02-26T10:18:16;9.90;63.70
1415;DHT22;702;49.466;11.086;2024-02-26T10:20:59;10.10;62.70
1415;DHT22;702;49.466;11.086;2024-02-26T10:23:28;10.50;62.10
1415;DHT22;702;49.466;11.086;2024-02-26T10:25:56;10.70;61.40
1415;DHT22;702;49.466;11.086;2024-02-26T10:28:23;10.70;61.10
1415;DHT22;702;49.466;11.086;2024-02-26T10:30:51;10.70;60.90
1415;DHT22;702;49.466;11.086;2024-02-26T10:33:20;10.80;60.80
1415;DHT22;702;49.466;11.086;2024-02-26T10:35:47;11.00;60.80
1415;DHT22;702;49.466;11.086;2024-02-26T10:38:14;11.00;60.10
1415;DHT22;702;49.466;11.086;2024-02-26T10:40:48;11.00;59.90
1415;DHT22;702;49.466;11.086;2024-02-26T10:43:16;10.90;59.40
1415;DHT22;702;49.466;11.086;2024-02-26T10:45:44;11.00;59.60
1415;DHT22;702;49.466;11.086;2024-02-26T10:48:14;11.30;59.40
1415;DHT22;702;49.466;11.086;2024-02-26T10:50:43;11.60;58.90
1415;DHT22;702;49.466;11.086;2024-02-26T10:53:15;11.70;58.50
1415;DHT22;702;49.466;11.086;2024-02-26T10:55:48;11.70;58.50
1415;DHT22;702;49.466;11.086;2024-02-26T10:58:24;11.80;58.80
1415;DHT22;702;49.466;11.086;2024-02-26T11:00:52;12.00;58.30
1415;DHT22;702;49.466;11.086;2024-02-26T11:03:20;12.20;58.10
1415;DHT22;702;49.466;11.086;2024-02-26T11:05:49;12.00;57.50
1415;DHT22;702;49.466;11.086;2024-02-26T11:08:18;12.10;57.30
1415;DHT22;702;49.466;11.086;2024-02-26T11:10:48;12.20;57.20
1415;DHT22;702;49.466;11.086;2024-02-26T11:13:18;12.10;56.80
1415;DHT22;702;49.466;11.086;2024-02-26T11:15:47;12.20;57.10
1415;DHT22;702;49.466;11.086;2024-02-26T11:18:15;12.20;57.20
1415;DHT22;702;49.466;11.086;2024-02-26T11:20:44;12.20;57.00
1415;DHT22;702;49.466;11.086;2024-02-26T11:23:11;12.10;56.60
1415;DHT22;702;49.466;11.086;2024-02-26T11:25:38;11.90;56.90
1415;DHT22;702;49.466;11.086;2024-02-26T11:28:10;12.20;57.10
1415;DHT22;702;49.466;11.086;2024-02-26T11:30:44;12.20;56.20
1415;DHT22;702;49.466;11.086;2024-02-26T11:33:14;12.20;56.30
1415;DHT22;702;49.466;11.086;2024-02-26T11:35:42;11.70;55.70
1415;DHT22;702;49.466;11.086;2024-02-26T11:38:17;11.70;55.90
1415;DHT22;702;49.466;11.086;2024-02-26T11:40:47;11.60;55.90
1415;DHT22;702;49.466;11.086;2024-02-26T11:43:23;11.70;55.80
1415;DHT22;702;49.466;11.086;2024-02-26T11:45:51;11.60;55.60
1415;DHT22;702;49.466;11.086;2024-02-26T11:48:23;11.60;55.90
1415;DHT22;702;49.466;11.086;2024-02-26T11:50:52;11.50;55.80
1415;DHT22;702;49.466;11.086;2024-02-26T11:53:22;11.50;56.00
1415;DHT22;702;49.466;11.086;2024-02-26T11:56:12;11.80;56.10
1415;DHT22;702;49.466;11.086;2024-02-26T11:58:53;12.10;56.20
1415;DHT22;702;49.466;11.086;2024-02-26T12:01:43;12.30;55.80
1415;DHT22;702;49.466;11.086;2024-02-26T12:04:18;12.60;55.80
1415;DHT22;702;49.466;11.086;2024-02-26T12:06:51;12.80;55.70
1415;DHT22;702;49.466;11.086;2024-02-26T12:09:33;12.90;55.60
1415;DHT22;702;49.466;11.086;2024-02-26T12:12:03;12.70;55.00
1415;DHT22;702;49.466;11.086;2024-02-26T12:14:35;12.40;55.20
1415;DHT22;702;49.466;11.086;2024-02-26T12:17:04;12.50;55.70
1415;DHT22;702;49.466;11.086;2024-02-26T12:19:34;12.60;55.30
1415;DHT22;702;49.466;11.086;2024-02-26T12:22:02;12.70;55.10
1415;DHT22;702;49.466;11.086;2024-02-26T12:24:31;12.80;55.40
1415;DHT22;702;49.466;11.086;2024-02-26T12:26:58;12.60;55.30
1415;DHT22;702;49.466;11.086;2024-02-26T12:29:25;12.40;55.20
1415;DHT22;702;49.466;11.086;2024-02-26T12:31:54;12.30;55.60
1415;DHT22;702;49.466;11.086;2024-02-26T12:34:21;12.40;56.00
1415;DHT22;702;49.466;11.086;2024-02-26T12:36:48;12.40;56.10
1415;DHT22;702;49.466;11.086;2024-02-26T12:39:16;12.50;55.80
1415;DHT22;702;49.466;11.086;2024-02-26T12:41:45;12.50;55.80
1415;DHT22;702;49.466;11.086;2024-02-26T12:44:15;12.40;55.70
1415;DHT22;702;49.466;11.086;2024-02-26T12:46:42;12.30;55.70
1415;DHT22;702;49.466;11.086;2024-02-26T12:49:15;12.20;55.60
1415;DHT22;702;49.466;11.086;2024-02-26T12:51:44;12.30;55.30
1415;DHT22;702;49.466;11.086;2024-02-26T12:54:12;12.50;55.20
1415;DHT22;702;49.466;11.086;2024-02-26T12:56:40;12.70;54.60
1415;DHT22;702;49.466;11.086;2024-02-26T12:59:07;12.90;54.30
1415;DHT22;702;49.466;11.086;2024-02-26T13:01:35;13.00;53.60
1415;DHT22;702;49.466;11.086;2024-02-26T13:04:03;13.00;53.20
1415;DHT22;702;49.466;11.086;2024-02-26T13:06:33;12.90;53.00
1415;DHT22;702;49.466;11.086;2024-02-26T13:09:00;13.10;52.70
1415;DHT22;702;49.466;11.086;2024-02-26T13:11:29;13.20;52.60
1415;DHT22;702;49.466;11.086;2024-02-26T13:13:57;13.40;52.60
1415;DHT22;702;49.466;11.086;2024-02-26T13:16:25;13.30;51.30
1415;DHT22;702;49.466;11.086;2024-02-26T13:18:53;13.10;51.30
1415;DHT22;702;49.466;11.086;2024-02-26T13:21:20;13.00;51.40
1415;DHT22;702;49.466;11.086;2024-02-26T13:23:52;13.30;51.10
1415;DHT22;702;49.466;11.086;2024-02-26T13:26:22;13.50;50.60
1415;DHT22;702;49.466;11.086;2024-02-26T13:28:59;13.30;50.30
1415;DHT22;702;49.466;11.086;2024-02-26T13:31:28;13.20;50.30
1415;DHT22;702;49.466;11.086;2024-02-26T13:33:55;13.30;50.40
1415;DHT22;702;49.466;11.086;2024-02-26T13:36:22;13.40;50.00
1415;DHT22;702;49.466;11.086;2024-02-26T13:38:55;13.50;50.00
1415;DHT22;702;49.466;11.086;2024-02-26T13:41:22;13.40;49.50
1415;DHT22;702;49.466;11.086;2024-02-26T13:43:50;13.40;49.80
1415;DHT22;702;49.466;11.086;2024-02-26T13:46:18;13.30;49.30
1415;DHT22;702;49.466;11.086;2024-02-26T13:48:45;13.30;49.40
1415;DHT22;702;49.466;11.086;2024-02-26T13:51:12;13.10;49.00
1415;DHT22;702;49.466;11.086;2024-02-26T13:53:40;13.10;48.90
1415;DHT22;702;49.466;11.086;2024-02-26T13:56:10;13.10;48.50
1415;DHT22;702;49.466;11.086;2024-02-26T13:58:37;13.30;48.20
1415;DHT22;702;49.466;11.086;2024-02-26T14:01:05;13.30;48.50
1415;DHT22;702;49.466;11.086;2024-02-26T14:03:32;13.40;48.20
1415;DHT22;702;49.466;11.086;2024-02-26T14:06:00;13.50;48.30
1415;DHT22;702;49.466;11.086;2024-02-26T14:08:27;13.50;48.20
1415;DHT22;702;49.466;11.086;2024-02-26T14:10:54;13.30;47.50
1415;DHT22;702;49.466;11.086;2024-02-26T14:13:23;13.40;48.30
1415;DHT22;702;49.466;11.086;2024-02-26T14:15:51;13.50;48.00
1415;DHT22;702;49.466;11.086;2024-02-26T14:18:18;13.70;47.90
1415;DHT22;702;49.466;11.086;2024-02-26T14:20:45;13.60;47.70
1415;DHT22;702;49.466;11.086;2024-02-26T14:23:12;13.50;47.90
1415;DHT22;702;49.466;11.086;2024-02-26T14:25:40;13.50;48.10
1415;DHT22;702;49.466;11.086;2024-02-26T14:28:08;13.30;48.10
1415;DHT22;702;49.466;11.086;2024-02-26T14:30:37;13.20;48.50
1415;DHT22;702;49.466;11.086;2024-02-26T14:33:04;13.10;48.80
1415;DHT22;702;49.466;11.086;2024-02-26T14:35:31;12.90;49.40
1415;DHT22;702;49.466;11.086;2024-02-26T14:37:58;12.90;49.70
1415;DHT22;702;49.466;11.086;2024-02-26T14:40:27;12.80;50.10
1415;DHT22;702;49.466;11.086;2024-02-26T14:42:55;12.90;50.50
1415;DHT22;702;49.466;11.086;2024-02-26T14:45:23;12.70;50.70
1415;DHT22;702;49.466;11.086;2024-02-26T14:47:52;12.50;50.90
1415;DHT22;702;49.466;11.086;2024-02-26T14:50:20;12.40;51.20
1415;DHT22;702;49.466;11.086;2024-02-26T14:52:47;12.40;51.80
1415;DHT22;702;49.466;11.086;2024-02-26T14:55:14;12.40;51.80
1415;DHT22;702;49.466;11.086;2024-02-26T14:57:41;12.30;51.70
1415;DHT22;702;49.466;11.086;2024-02-26T15:00:10;12.30;51.90
1415;DHT22;702;49.466;11.086;2024-02-26T15:02:37;12.20;51.80
1415;DHT22;702;49.466;11.086;2024-02-26T15:05:06;12.10;51.90
1415;DHT22;702;49.466;11.086;2024-02-26T15:07:36;12.00;51.90
1415;DHT22;702;49.466;11.086;2024-02-26T15:10:07;12.00;52.10
1415;DHT22;702;49.466;11.086;2024-02-26T15:12:34;11.80;52.20
1415;DHT22;702;49.466;11.086;2024-02-26T15:15:03;11.80;52.30
1415;DHT22;702;49.466;11.086;2024-02-26T15:17:31;11.80;52.30
1415;DHT22;702;49.466;11.086;2024-02-26T15:20:00;11.80;52.60
1415;DHT22;702;49.466;11.086;2024-02-26T15:22:29;11.70;52.50
1415;DHT22;702;49.466;11.086;2024-02-26T15:24:56;11.70;52.60
1415;DHT22;702;49.466;11.086;2024-02-26T15:27:23;11.50;52.60
1415;DHT22;702;49.466;11.086;2024-02-26T15:29:52;11.50;52.90
1415;DHT22;702;49.466;11.086;2024-02-26T15:32:24;11.50;53.00
1415;DHT22;702;49.466;11.086;2024-02-26T15:34:52;11.40;52.90
1415;DHT22;702;49.466;11.086;2024-02-26T15:37:20;11.30;53.00
1415;DHT22;702;49.466;11.086;2024-02-26T15:39:48;11.30;53.20
1415;DHT22;702;49.466;11.086;2024-02-26T15:42:16;11.30;53.30
1415;DHT22;702;49.466;11.086;2024-02-26T15:44:44;11.20;53.30
1415;DHT22;702;49.466;11.086;2024-02-26T15:47:11;11.30;53.40
1415;DHT22;702;49.466;11.086;2024-02-26T15:49:39;11.20;53.50
1415;DHT22;702;49.466;11.086;2024-02-26T15:52:06;11.10;53.60
1415;DHT22;702;49.466;11.086;2024-02-26T15:54:38;11.10;53.80
1415;DHT22;702;49.466;11.086;2024-02-26T15:57:07;11.10;54.00
1415;DHT22;702;49.466;11.086;2024-02-26T15:59:35;11.10;54.00
1415;DHT22;702;49.466;11.086;2024-02-26T16:02:03;11.00;54.00
1415;DHT22;702;49.466;11.086;2024-02-26T16:04:30;10.90;54.00
1415;DHT22;702;49.466;11.086;2024-02-26T16:07:00;10.80;54.10
1415;DHT22;702;49.466;11.086;2024-02-26T16:09:30;10.80;54.30
1415;DHT22;702;49.466;11.086;2024-02-26T16:11:59;10.80;54.40
1415;DHT22;702;49.466;11.086;2024-02-26T16:14:38;10.80;54.50
1415;DHT22;702;49.466;11.086;2024-02-26T16:17:14;10.80;54.80
1415;DHT22;702;49.466;11.086;2024-02-26T16:19:44;10.70;54.90